German Valley, Illinois
Current Conditions -  °F | °C
As of 8:35 AM on Friday 28 Nov 2014 (Local Time) from KFEP Reporting Station
Clear Clear  
Wind Chill:   Ceiling: Unl
Heat Index: 17°   Visibility: 10mi
Dew Point: 12°   Wind: 14mph
Humidity: 79%   Direction: 150°SSE
Pressure: 30.19"   Gusts: NA
Location:  42.22°N, 89.47°W
Report Text: KFEP 281435Z AUTO 15012KT 10SM CLR M08/M11 A3019 RMK AO2 T10821112
Loading
Personal Weather Stations






























Interactive Weather Map New forecast layout! Learn more

10-Day Weather Forecast

Advertisements
Track Severe Weather on mobile